Time,TemperatureF,DewpointF,PressureIn,WindDirection,WindDirectionDegrees,WindSpeedMPH,WindSpeedGustMPH,Humidity,HourlyPrecipIn,Conditions,Clouds,dailyrainin,SoftwareType,DateUTC
2013-02-18 00:03:00,19.2,12.7,29.92,West,270,0.0,0.0,76,0.00,,,0.00,WUHU215HW,2013-02-18 07:03:00,
2013-02-18 00:08:00,19.2,12.7,29.92,West,270,0.0,0.0,76,0.00,,,0.00,WUHU215HW,2013-02-18 07:08:00,
2013-02-18 00:13:00,18.6,12.2,29.92,West,270,0.0,0.0,76,0.00,,,0.00,WUHU215HW,2013-02-18 07:13:00,
2013-02-18 00:18:00,18.5,12.0,29.93,West,270,0.0,0.0,76,0.00,,,0.00,WUHU215HW,2013-02-18 07:18:00,
2013-02-18 00:23:00,18.3,11.9,29.93,West,270,0.0,0.0,76,0.00,,,0.00,WUHU215HW,2013-02-18 07:23:00,
2013-02-18 00:28:00,18.3,11.9,29.92,West,270,0.0,0.0,76,0.00,,,0.00,WUHU215HW,2013-02-18 07:28:00,
2013-02-18 00:33:00,18.3,12.2,29.92,West,270,0.0,0.0,77,0.00,,,0.00,WUHU215HW,2013-02-18 07:33:00,
2013-02-18 00:38:00,18.3,12.5,29.93,West,270,0.0,0.0,78,0.00,,,0.00,WUHU215HW,2013-02-18 07:38:00,
2013-02-18 00:43:00,18.3,12.5,29.93,West,270,0.0,0.0,78,0.00,,,0.00,WUHU215HW,2013-02-18 07:43:00,
2013-02-18 00:48:00,18.1,12.3,29.92,West,270,0.0,0.0,78,0.00,,,0.00,WUHU215HW,2013-02-18 07:48:00,
2013-02-18 00:53:00,18.1,12.3,29.92,West,270,0.0,0.0,78,0.00,,,0.00,WUHU215HW,2013-02-18 07:53:00,
2013-02-18 00:58:00,17.9,12.1,29.92,West,270,0.0,0.0,78,0.00,,,0.00,WUHU215HW,2013-02-18 07:58:00,
2013-02-18 01:03:00,17.9,12.1,29.92,West,270,0.0,0.0,78,0.00,,,0.00,WUHU215HW,2013-02-18 08:03:00,
2013-02-18 01:08:00,17.9,12.4,29.92,West,270,0.0,0.0,79,0.00,,,0.00,WUHU215HW,2013-02-18 08:08:00,
2013-02-18 01:13:00,17.7,12.2,29.92,West,270,0.0,0.0,79,0.00,,,0.00,WUHU215HW,2013-02-18 08:13:00,
2013-02-18 01:18:00,17.7,12.2,29.93,West,270,0.0,0.0,79,0.00,,,0.00,WUHU215HW,2013-02-18 08:18:00,
2013-02-18 01:23:00,17.4,11.9,29.92,West,270,0.0,0.0,79,0.00,,,0.00,WUHU215HW,2013-02-18 08:23:00,
2013-02-18 01:28:00,17.4,11.7,29.93,West,270,0.0,0.0,79,0.00,,,0.00,WUHU215HW,2013-02-18 08:28:00,
2013-02-18 01:33:00,17.2,11.7,29.93,West,270,0.0,0.0,79,0.00,,,0.00,WUHU215HW,2013-02-18 08:33:00,
2013-02-18 01:38:00,16.8,11.4,29.93,West,270,0.0,0.0,79,0.00,,,0.00,WUHU215HW,2013-02-18 08:38:00,
2013-02-18 01:43:00,16.8,11.4,29.93,West,270,0.0,0.0,79,0.00,,,0.00,WUHU215HW,2013-02-18 08:43:00,
2013-02-18 01:48:00,16.7,11.2,29.93,West,270,0.0,0.0,79,0.00,,,0.00,WUHU215HW,2013-02-18 08:48:00,
2013-02-18 01:53:00,16.5,11.1,29.93,West,270,0.0,0.0,79,0.00,,,0.00,WUHU215HW,2013-02-18 08:53:00,
2013-02-18 01:58:00,16.3,10.9,29.92,West,270,0.0,0.0,79,0.00,,,0.00,WUHU215HW,2013-02-18 08:58:00,
2013-02-18 02:03:00,16.3,10.9,29.92,West,270,0.0,0.0,79,0.00,,,0.00,WUHU215HW,2013-02-18 09:03:00,
2013-02-18 02:08:00,16.3,10.9,29.92,West,270,0.0,0.0,79,0.00,,,0.00,WUHU215HW,2013-02-18 09:08:00,
2013-02-18 02:13:00,16.3,10.9,29.92,West,270,0.0,0.0,79,0.00,,,0.00,WUHU215HW,2013-02-18 09:13:00,
2013-02-18 02:18:00,16.3,11.2,29.92,West,270,0.0,0.0,80,0.00,,,0.00,WUHU215HW,2013-02-18 09:18:00,
2013-02-18 02:23:00,16.3,11.2,29.92,West,270,0.0,0.0,80,0.00,,,0.00,WUHU215HW,2013-02-18 09:23:00,
2013-02-18 02:28:00,16.1,11.2,29.92,West,270,0.0,0.0,80,0.00,,,0.00,WUHU215HW,2013-02-18 09:28:00,
2013-02-18 02:33:00,16.1,11.0,29.92,West,270,0.0,0.0,80,0.00,,,0.00,WUHU215HW,2013-02-18 09:33:00,
2013-02-18 02:38:00,15.9,10.9,29.92,West,270,0.0,0.0,80,0.00,,,0.00,WUHU215HW,2013-02-18 09:38:00,
2013-02-18 02:43:00,15.8,10.7,29.92,West,270,0.0,0.0,80,0.00,,,0.00,WUHU215HW,2013-02-18 09:43:00,
2013-02-18 02:48:00,15.9,11.1,29.92,West,270,0.0,0.0,81,0.00,,,0.00,WUHU215HW,2013-02-18 09:48:00,
2013-02-18 02:53:00,16.1,11.3,29.92,West,270,0.0,0.0,81,0.00,,,0.00,WUHU215HW,2013-02-18 09:53:00,
2013-02-18 02:59:00,16.1,11.3,29.92,West,270,0.0,0.0,81,0.00,,,0.00,WUHU215HW,2013-02-18 09:59:00,
2013-02-18 03:04:00,15.9,11.1,29.92,West,270,0.0,0.0,81,0.00,,,0.00,WUHU215HW,2013-02-18 10:04:00,
2013-02-18 03:09:00,16.1,11.3,29.92,West,270,0.0,0.0,81,0.00,,,0.00,WUHU215HW,2013-02-18 10:09:00,
2013-02-18 03:14:00,16.1,11.3,29.92,West,270,0.0,0.0,81,0.00,,,0.00,WUHU215HW,2013-02-18 10:14:00,
2013-02-18 03:19:00,15.9,11.1,29.92,West,270,0.0,0.0,81,0.00,,,0.00,WUHU215HW,2013-02-18 10:19:00,
2013-02-18 03:24:00,15.6,10.8,29.92,West,270,0.0,0.0,81,0.00,,,0.00,WUHU215HW,2013-02-18 10:24:00,
2013-02-18 03:29:00,15.2,10.4,29.91,West,270,0.0,0.0,81,0.00,,,0.00,WUHU215HW,2013-02-18 10:29:00,
2013-02-18 03:34:00,15.4,10.6,29.91,West,270,0.0,0.0,81,0.00,,,0.00,WUHU215HW,2013-02-18 10:34:00,
2013-02-18 03:39:00,15.4,10.6,29.91,West,270,0.0,0.0,81,0.00,,,0.00,WUHU215HW,2013-02-18 10:39:00,
2013-02-18 03:44:00,15.4,10.6,29.91,West,270,0.0,0.0,81,0.00,,,0.00,WUHU215HW,2013-02-18 10:44:00,
2013-02-18 03:49:00,15.2,10.4,29.91,West,270,0.0,0.0,81,0.00,,,0.00,WUHU215HW,2013-02-18 10:49:00,
2013-02-18 03:54:00,15.2,10.4,29.91,West,270,0.0,0.0,81,0.00,,,0.00,WUHU215HW,2013-02-18 10:54:00,
2013-02-18 03:59:00,15.2,10.4,29.91,West,270,0.0,0.0,81,0.00,,,0.00,WUHU215HW,2013-02-18 10:59:00,
2013-02-18 04:04:00,15.0,10.2,29.90,West,270,0.0,0.0,81,0.00,,,0.00,WUHU215HW,2013-02-18 11:04:00,
2013-02-18 04:09:00,15.0,10.2,29.90,West,270,0.0,0.0,81,0.00,,,0.00,WUHU215HW,2013-02-18 11:09:00,
2013-02-18 04:14:00,15.0,10.2,29.91,West,270,0.0,0.0,81,0.00,,,0.00,WUHU215HW,2013-02-18 11:14:00,
2013-02-18 04:19:00,15.0,10.5,29.91,West,270,0.0,0.0,82,0.00,,,0.00,WUHU215HW,2013-02-18 11:19:00,
2013-02-18 04:24:00,15.0,10.5,29.90,West,270,0.0,0.0,82,0.00,,,0.00,WUHU215HW,2013-02-18 11:24:00,
2013-02-18 04:30:00,14.9,10.3,29.91,West,270,0.0,0.0,82,0.00,,,0.00,WUHU215HW,2013-02-18 11:30:00,
2013-02-18 04:35:00,14.7,10.2,29.90,West,270,0.0,0.0,82,0.00,,,0.00,WUHU215HW,2013-02-18 11:35:00,
2013-02-18 04:41:00,14.5,10.0,29.91,West,270,0.0,0.0,82,0.00,,,0.00,WUHU215HW,2013-02-18 11:41:00,
2013-02-18 04:46:00,14.3,9.8,29.90,West,270,0.0,0.0,82,0.00,,,0.00,WUHU215HW,2013-02-18 11:46:00,
2013-02-18 04:51:00,14.5,10.0,29.90,West,270,0.0,0.0,82,0.00,,,0.00,WUHU215HW,2013-02-18 11:51:00,
2013-02-18 04:56:00,14.5,10.0,29.90,West,270,0.0,0.0,82,0.00,,,0.00,WUHU215HW,2013-02-18 11:56:00,
2013-02-18 05:01:00,14.5,10.0,29.90,West,270,0.0,0.0,82,0.00,,,0.00,WUHU215HW,2013-02-18 12:01:00,
2013-02-18 05:06:00,14.3,9.8,29.90,West,270,0.0,0.0,82,0.00,,,0.00,WUHU215HW,2013-02-18 12:06:00,
2013-02-18 05:11:00,14.1,9.6,29.90,West,270,0.0,0.0,82,0.00,,,0.00,WUHU215HW,2013-02-18 12:11:00,
2013-02-18 05:16:00,14.1,9.6,29.90,West,270,0.0,0.0,82,0.00,,,0.00,WUHU215HW,2013-02-18 12:16:00,
2013-02-18 05:21:00,14.1,9.6,29.89,West,270,0.0,0.0,82,0.00,,,0.00,WUHU215HW,2013-02-18 12:21:00,
2013-02-18 05:26:00,14.1,9.6,29.89,West,270,0.0,0.0,82,0.00,,,0.00,WUHU215HW,2013-02-18 12:26:00,
2013-02-18 05:31:00,14.1,9.6,29.89,West,270,0.0,0.0,82,0.00,,,0.00,WUHU215HW,2013-02-18 12:31:00,
2013-02-18 05:36:00,14.1,9.6,29.89,West,270,0.0,0.0,82,0.00,,,0.00,WUHU215HW,2013-02-18 12:36:00,
2013-02-18 05:41:00,14.3,9.8,29.89,West,270,0.0,0.0,82,0.00,,,0.00,WUHU215HW,2013-02-18 12:41:00,
2013-02-18 05:46:00,14.3,9.8,29.89,West,270,0.0,0.0,82,0.00,,,0.00,WUHU215HW,2013-02-18 12:46:00,
2013-02-18 05:51:00,14.3,9.8,29.90,West,270,0.0,0.0,82,0.00,,,0.00,WUHU215HW,2013-02-18 12:51:00,
2013-02-18 05:56:00,14.5,10.0,29.89,West,270,0.0,0.0,82,0.00,,,0.00,WUHU215HW,2013-02-18 12:56:00,
2013-02-18 06:01:00,14.7,10.2,29.89,West,270,0.0,0.0,82,0.00,,,0.00,WUHU215HW,2013-02-18 13:01:00,
2013-02-18 06:06:00,14.7,10.2,29.89,West,270,0.0,0.0,82,0.00,,,0.00,WUHU215HW,2013-02-18 13:06:00,
2013-02-18 06:11:00,14.9,10.6,29.89,West,270,0.0,0.0,83,0.00,,,0.00,WUHU215HW,2013-02-18 13:11:00,
2013-02-18 06:16:00,14.9,10.6,29.88,West,270,0.0,0.0,83,0.00,,,0.00,WUHU215HW,2013-02-18 13:16:00,
2013-02-18 06:21:00,14.9,10.6,29.88,West,270,0.0,0.0,83,0.00,,,0.00,WUHU215HW,2013-02-18 13:21:00,
2013-02-18 06:26:00,14.9,10.3,29.88,West,270,0.0,0.0,82,0.00,,,0.00,WUHU215HW,2013-02-18 13:26:00,
2013-02-18 06:31:00,14.7,10.2,29.88,West,270,0.0,0.0,82,0.00,,,0.00,WUHU215HW,2013-02-18 13:31:00,
2013-02-18 06:36:00,14.7,10.2,29.88,West,270,0.0,0.0,82,0.00,,,0.00,WUHU215HW,2013-02-18 13:36:00,
2013-02-18 06:41:00,14.3,9.8,29.88,West,270,0.0,0.0,82,0.00,,,0.00,WUHU215HW,2013-02-18 13:41:00,
2013-02-18 06:46:00,14.3,9.8,29.88,West,270,0.0,0.0,82,0.00,,,0.00,WUHU215HW,2013-02-18 13:46:00,
2013-02-18 06:51:00,14.3,9.8,29.88,West,270,0.0,0.0,82,0.00,,,0.00,WUHU215HW,2013-02-18 13:51:00,
2013-02-18 06:56:00,14.1,9.6,29.89,West,270,0.0,0.0,82,0.00,,,0.00,WUHU215HW,2013-02-18 13:56:00,
2013-02-18 07:01:00,14.3,10.1,29.89,West,270,0.0,0.0,83,0.00,,,0.00,WUHU215HW,2013-02-18 14:01:00,
2013-02-18 07:06:00,14.5,10.2,29.88,West,270,0.0,0.0,83,0.00,,,0.00,WUHU215HW,2013-02-18 14:06:00,
2013-02-18 07:11:00,14.5,10.2,29.88,West,270,0.0,0.0,83,0.00,,,0.00,WUHU215HW,2013-02-18 14:11:00,
2013-02-18 07:16:00,14.1,9.9,29.88,West,270,0.0,0.0,83,0.00,,,0.00,WUHU215HW,2013-02-18 14:16:00,
2013-02-18 07:21:00,14.1,9.9,29.89,West,270,0.0,0.0,83,0.00,,,0.00,WUHU215HW,2013-02-18 14:21:00,
2013-02-18 07:26:00,14.1,9.9,29.88,West,270,0.0,0.0,83,0.00,,,0.00,WUHU215HW,2013-02-18 14:26:00,
2013-02-18 07:31:00,14.1,9.9,29.88,West,270,0.0,0.0,83,0.00,,,0.00,WUHU215HW,2013-02-18 14:31:00,
2013-02-18 07:36:00,13.8,9.3,29.89,West,270,0.0,0.0,82,0.00,,,0.00,WUHU215HW,2013-02-18 14:36:00,
2013-02-18 07:41:00,13.8,9.3,29.88,West,270,0.0,0.0,82,0.00,,,0.00,WUHU215HW,2013-02-18 14:41:00,
2013-02-18 07:46:00,13.8,9.5,29.88,West,270,0.0,0.0,83,0.00,,,0.00,WUHU215HW,2013-02-18 14:46:00,
2013-02-18 07:51:00,13.8,9.5,29.88,West,270,0.0,0.0,83,0.00,,,0.00,WUHU215HW,2013-02-18 14:51:00,
2013-02-18 07:56:00,14.0,9.7,29.88,West,270,0.0,0.0,83,0.00,,,0.00,WUHU215HW,2013-02-18 14:56:00,
2013-02-18 08:01:00,14.1,9.9,29.89,West,270,0.0,0.0,83,0.00,,,0.00,WUHU215HW,2013-02-18 15:01:00,
2013-02-18 08:06:00,14.1,9.9,29.89,West,270,0.0,0.0,83,0.00,,,0.00,WUHU215HW,2013-02-18 15:06:00,
2013-02-18 08:11:00,14.3,10.1,29.89,West,270,0.0,0.0,83,0.00,,,0.00,WUHU215HW,2013-02-18 15:11:00,
2013-02-18 08:16:00,14.7,10.4,29.89,West,270,0.0,0.0,83,0.00,,,0.00,WUHU215HW,2013-02-18 15:16:00,
2013-02-18 08:21:00,14.7,10.4,29.89,West,270,0.0,0.0,83,0.00,,,0.00,WUHU215HW,2013-02-18 15:21:00,
2013-02-18 08:26:00,15.0,10.8,29.88,West,270,0.0,0.0,83,0.00,,,0.00,WUHU215HW,2013-02-18 15:26:00,
2013-02-18 08:31:00,15.4,11.1,29.88,West,270,0.0,0.0,83,0.00,,,0.00,WUHU215HW,2013-02-18 15:31:00,
2013-02-18 08:36:00,15.6,11.3,29.89,West,270,0.0,0.0,83,0.00,,,0.00,WUHU215HW,2013-02-18 15:36:00,
2013-02-18 08:41:00,16.3,12.0,29.88,West,270,0.0,0.0,83,0.00,,,0.00,WUHU215HW,2013-02-18 15:41:00,
2013-02-18 08:46:00,16.5,12.1,29.88,West,270,0.0,0.0,83,0.00,,,0.00,WUHU215HW,2013-02-18 15:46:00,
2013-02-18 08:51:00,17.0,12.6,29.89,West,270,0.0,0.0,83,0.00,,,0.00,WUHU215HW,2013-02-18 15:51:00,
2013-02-18 08:56:00,17.7,13.3,29.88,West,270,0.0,0.0,83,0.00,,,0.00,WUHU215HW,2013-02-18 15:56:00,
2013-02-18 09:02:00,18.5,14.0,29.89,West,270,0.0,0.0,83,0.00,,,0.00,WUHU215HW,2013-02-18 16:02:00,
2013-02-18 09:08:00,19.2,14.8,29.89,West,270,0.0,0.0,83,0.00,,,0.00,WUHU215HW,2013-02-18 16:08:00,
2013-02-18 09:13:00,19.9,15.5,29.88,West,270,0.0,0.0,83,0.00,,,0.00,WUHU215HW,2013-02-18 16:13:00,
2013-02-18 09:18:00,20.3,15.8,29.88,West,270,0.0,0.0,83,0.00,,,0.00,WUHU215HW,2013-02-18 16:18:00,
2013-02-18 09:23:00,20.8,16.1,29.88,West,270,0.0,0.0,82,0.00,,,0.00,WUHU215HW,2013-02-18 16:23:00,
2013-02-18 09:29:00,21.7,17.0,29.88,West,270,0.0,0.0,82,0.00,,,0.00,WUHU215HW,2013-02-18 16:29:00,
2013-02-18 09:34:00,22.1,17.1,29.88,West,270,0.0,0.0,81,0.00,,,0.00,WUHU215HW,2013-02-18 16:34:00,
2013-02-18 09:39:00,23.1,18.2,29.88,West,270,0.0,0.0,81,0.00,,,0.00,WUHU215HW,2013-02-18 16:39:00,
2013-02-18 09:44:00,24.0,19.1,29.88,West,270,0.0,0.0,81,0.00,,,0.00,WUHU215HW,2013-02-18 16:44:00,
2013-02-18 09:49:00,25.3,20.3,29.88,West,270,0.0,0.0,81,0.00,,,0.00,WUHU215HW,2013-02-18 16:49:00,
2013-02-18 09:54:00,26.4,20.4,29.88,West,270,0.0,0.0,78,0.00,,,0.00,WUHU215HW,2013-02-18 16:54:00,
2013-02-18 09:59:00,27.1,20.5,29.88,West,270,0.0,0.0,76,0.00,,,0.00,WUHU215HW,2013-02-18 16:59:00,
2013-02-18 10:05:00,27.3,20.3,29.88,West,270,0.0,0.0,75,0.00,,,0.00,WUHU215HW,2013-02-18 17:05:00,
2013-02-18 10:10:00,27.5,20.2,29.88,West,270,0.0,0.0,74,0.00,,,0.00,WUHU215HW,2013-02-18 17:10:00,
2013-02-18 10:15:00,27.6,20.1,29.88,West,270,0.0,0.0,73,0.00,,,0.00,WUHU215HW,2013-02-18 17:15:00,
2013-02-18 10:21:00,28.0,20.1,29.88,West,270,0.0,0.0,72,0.00,,,0.00,WUHU215HW,2013-02-18 17:21:00,
2013-02-18 10:26:00,28.7,20.2,29.88,West,270,0.0,0.0,70,0.00,,,0.00,WUHU215HW,2013-02-18 17:26:00,
2013-02-18 10:31:00,29.1,20.2,29.88,West,270,0.0,0.0,69,0.00,,,0.00,WUHU215HW,2013-02-18 17:31:00,
2013-02-18 10:36:00,29.4,20.1,29.88,West,270,0.0,0.0,68,0.00,,,0.00,WUHU215HW,2013-02-18 17:36:00,
2013-02-18 10:41:00,29.6,19.9,29.88,West,270,0.0,0.0,67,0.00,,,0.00,WUHU215HW,2013-02-18 17:41:00,
2013-02-18 10:46:00,29.8,20.1,29.88,West,270,0.0,0.0,67,0.00,,,0.00,WUHU215HW,2013-02-18 17:46:00,
2013-02-18 10:51:00,30.0,19.9,29.88,West,270,0.0,0.0,66,0.00,,,0.00,WUHU215HW,2013-02-18 17:51:00,
2013-02-18 10:56:00,31.1,21.0,29.87,West,270,0.0,0.0,66,0.00,,,0.00,WUHU215HW,2013-02-18 17:56:00,
2013-02-18 11:01:00,31.8,21.3,29.87,West,270,0.0,0.0,65,0.00,,,0.00,WUHU215HW,2013-02-18 18:01:00,
2013-02-18 11:06:00,31.8,20.3,29.88,West,270,0.0,0.0,62,0.00,,,0.00,WUHU215HW,2013-02-18 18:06:00,
2013-02-18 11:11:00,31.8,19.9,29.87,West,270,0.0,0.0,61,0.00,,,0.00,WUHU215HW,2013-02-18 18:11:00,
2013-02-18 11:16:00,31.8,19.9,29.87,West,270,0.0,0.0,61,0.00,,,0.00,WUHU215HW,2013-02-18 18:16:00,
2013-02-18 11:22:00,32.1,19.9,29.87,West,270,0.0,0.0,60,0.00,,,0.00,WUHU215HW,2013-02-18 18:22:00,
2013-02-18 11:27:00,32.3,20.0,29.86,West,270,0.0,0.0,60,0.00,,,0.00,WUHU215HW,2013-02-18 18:27:00,
2013-02-18 11:33:00,32.7,19.9,29.86,West,270,0.0,0.0,59,0.00,,,0.00,WUHU215HW,2013-02-18 18:33:00,
2013-02-18 11:38:00,33.0,20.3,29.86,West,270,0.0,0.0,59,0.00,,,0.00,WUHU215HW,2013-02-18 18:38:00,
2013-02-18 11:43:00,33.4,20.1,29.86,West,270,0.0,0.0,58,0.00,,,0.00,WUHU215HW,2013-02-18 18:43:00,
2013-02-18 11:48:00,33.8,20.0,29.86,West,270,0.0,0.0,57,0.00,,,0.00,WUHU215HW,2013-02-18 18:48:00,
2013-02-18 11:53:00,34.3,20.6,29.86,West,270,0.0,0.0,57,0.00,,,0.00,WUHU215HW,2013-02-18 18:53:00,
2013-02-18 11:58:00,34.8,20.3,29.86,West,270,0.0,0.0,55,0.00,,,0.00,WUHU215HW,2013-02-18 18:58:00,
2013-02-18 12:03:00,35.2,20.2,29.86,West,270,0.0,0.0,54,0.00,,,0.00,WUHU215HW,2013-02-18 19:03:00,
2013-02-18 12:08:00,35.2,20.2,29.85,West,270,0.0,0.0,54,0.00,,,0.00,WUHU215HW,2013-02-18 19:08:00,
2013-02-18 12:13:00,35.7,20.3,29.86,West,270,0.0,0.0,53,0.00,,,0.00,WUHU215HW,2013-02-18 19:13:00,
2013-02-18 12:18:00,35.9,20.0,29.85,WNW,293,0.0,0.0,52,0.00,,,0.00,WUHU215HW,2013-02-18 19:18:00,
2013-02-18 12:23:00,36.3,20.3,29.85,WNW,293,0.0,0.0,52,0.00,,,0.00,WUHU215HW,2013-02-18 19:23:00,
2013-02-18 12:28:00,37.0,21.0,29.85,WNW,293,0.0,0.0,52,0.00,,,0.00,WUHU215HW,2013-02-18 19:28:00,
2013-02-18 12:33:00,37.4,21.3,29.84,WNW,293,0.0,0.0,52,0.00,,,0.00,WUHU215HW,2013-02-18 19:33:00,
2013-02-18 12:38:00,37.5,21.0,29.84,WNW,293,0.0,0.0,51,0.00,,,0.00,WUHU215HW,2013-02-18 19:38:00,
2013-02-18 12:43:00,38.1,21.1,29.83,WSW,248,0.0,0.0,50,0.00,,,0.00,WUHU215HW,2013-02-18 19:43:00,
2013-02-18 12:48:00,37.9,19.9,29.83,SSE,158,0.0,0.0,48,0.00,,,0.00,WUHU215HW,2013-02-18 19:48:00,
2013-02-18 12:53:00,37.9,20.4,29.83,SSE,158,0.0,0.0,49,0.00,,,0.00,WUHU215HW,2013-02-18 19:53:00,
2013-02-18 12:58:00,38.6,20.5,29.83,SSE,158,0.0,0.0,48,0.00,,,0.00,WUHU215HW,2013-02-18 19:58:00,
2013-02-18 13:03:00,39.0,20.8,29.83,SSE,158,0.0,0.0,48,0.00,,,0.00,WUHU215HW,2013-02-18 20:03:00,
2013-02-18 13:08:00,39.7,21.5,29.83,SSE,158,0.0,0.0,48,0.00,,,0.00,WUHU215HW,2013-02-18 20:08:00,
2013-02-18 13:13:00,40.2,20.9,29.82,NW,315,0.0,0.0,46,0.00,,,0.00,WUHU215HW,2013-02-18 20:13:00,
2013-02-18 13:18:00,40.8,20.9,29.81,North,0,0.0,0.0,45,0.00,,,0.00,WUHU215HW,2013-02-18 20:18:00,
2013-02-18 13:23:00,40.8,19.9,29.81,NNE,23,0.0,0.0,43,0.00,,,0.00,WUHU215HW,2013-02-18 20:23:00,
2013-02-18 13:28:00,40.6,20.2,29.81,North,0,0.0,0.0,44,0.00,,,0.00,WUHU215HW,2013-02-18 20:28:00,
2013-02-18 13:33:00,40.6,19.7,29.80,North,0,0.0,0.0,43,0.00,,,0.00,WUHU215HW,2013-02-18 20:33:00,
2013-02-18 13:39:00,40.8,19.9,29.81,WSW,248,0.0,0.0,43,0.00,,,0.00,WUHU215HW,2013-02-18 20:39:00,
2013-02-18 13:44:00,41.7,20.7,29.80,WSW,248,0.0,0.0,43,0.00,,,0.00,WUHU215HW,2013-02-18 20:44:00,
2013-02-18 13:49:00,42.9,21.3,29.80,NW,315,0.0,0.0,42,0.00,,,0.00,WUHU215HW,2013-02-18 20:49:00,
2013-02-18 13:55:00,43.5,21.3,29.79,NW,315,0.0,0.0,41,0.00,,,0.00,WUHU215HW,2013-02-18 20:55:00,
2013-02-18 14:00:00,44.9,21.3,29.80,NNE,23,0.0,0.0,39,0.00,,,0.00,WUHU215HW,2013-02-18 21:00:00,
2013-02-18 14:05:00,46.0,21.7,29.80,NNW,338,0.0,0.0,38,0.00,,,0.00,WUHU215HW,2013-02-18 21:05:00,
2013-02-18 14:10:00,46.0,21.7,29.80,NNW,338,0.0,0.0,38,0.00,,,0.00,WUHU215HW,2013-02-18 21:10:00,
2013-02-18 14:15:00,45.6,21.3,29.79,NW,315,0.0,0.0,38,0.00,,,0.00,WUHU215HW,2013-02-18 21:15:00,
2013-02-18 14:20:00,45.5,21.2,29.79,West,270,0.0,0.0,38,0.00,,,0.00,WUHU215HW,2013-02-18 21:20:00,
2013-02-18 14:25:00,45.1,20.8,29.79,West,270,0.0,0.0,38,0.00,,,0.00,WUHU215HW,2013-02-18 21:25:00,
2013-02-18 14:30:00,45.1,20.8,29.79,SE,135,0.0,0.0,38,0.00,,,0.00,WUHU215HW,2013-02-18 21:30:00,
2013-02-18 14:35:00,45.1,20.8,29.79,SE,135,0.0,0.0,38,0.00,,,0.00,WUHU215HW,2013-02-18 21:35:00,
2013-02-18 14:40:00,46.0,21.0,29.79,SE,135,0.0,0.0,37,0.00,,,0.00,WUHU215HW,2013-02-18 21:40:00,
2013-02-18 14:45:00,47.1,21.3,29.79,SE,135,0.0,0.0,36,0.00,,,0.00,WUHU215HW,2013-02-18 21:45:00,
2013-02-18 14:50:00,46.7,21.0,29.78,SSW,203,0.0,0.0,36,0.00,,,0.00,WUHU215HW,2013-02-18 21:50:00,
2013-02-18 14:55:00,46.2,19.8,29.78,WSW,248,0.0,0.0,35,0.00,,,0.00,WUHU215HW,2013-02-18 21:55:00,
2013-02-18 15:00:00,45.1,18.8,29.78,South,180,0.0,0.0,35,0.00,,,0.00,WUHU215HW,2013-02-18 22:00:00,
2013-02-18 15:05:00,44.7,18.5,29.78,WSW,248,0.0,0.0,35,0.00,,,0.00,WUHU215HW,2013-02-18 22:05:00,
2013-02-18 15:10:00,44.6,17.7,29.78,SSW,203,0.0,0.0,34,0.00,,,0.00,WUHU215HW,2013-02-18 22:10:00,
2013-02-18 15:15:00,44.4,18.2,29.78,SSW,203,0.0,0.0,35,0.00,,,0.00,WUHU215HW,2013-02-18 22:15:00,
2013-02-18 15:20:00,43.8,17.0,29.78,SW,225,0.0,0.0,34,0.00,,,0.00,WUHU215HW,2013-02-18 22:20:00,
2013-02-18 15:25:00,43.3,17.2,29.78,SW,225,0.0,0.0,35,0.00,,,0.00,WUHU215HW,2013-02-18 22:25:00,
2013-02-18 15:30:00,42.6,16.6,29.78,SSW,203,0.0,0.0,35,0.00,,,0.00,WUHU215HW,2013-02-18 22:30:00,
2013-02-18 15:35:00,42.4,17.1,29.78,SSW,203,0.0,0.0,36,0.00,,,0.00,WUHU215HW,2013-02-18 22:35:00,
2013-02-18 15:40:00,42.0,17.4,29.78,SSW,203,0.0,0.0,37,0.00,,,0.00,WUHU215HW,2013-02-18 22:40:00,
2013-02-18 15:45:00,41.5,17.0,29.78,SW,225,0.0,0.0,37,0.00,,,0.00,WUHU215HW,2013-02-18 22:45:00,
2013-02-18 15:50:00,41.1,16.7,29.78,SW,225,0.0,0.0,37,0.00,,,0.00,WUHU215HW,2013-02-18 22:50:00,
2013-02-18 15:55:00,40.8,16.3,29.78,WSW,248,0.0,0.0,37,0.00,,,0.00,WUHU215HW,2013-02-18 22:55:00,
2013-02-18 16:00:00,40.6,16.2,29.78,WSW,248,0.0,0.0,37,0.00,,,0.00,WUHU215HW,2013-02-18 23:00:00,
2013-02-18 16:05:00,40.4,16.7,29.78,WSW,248,0.0,0.0,38,0.00,,,0.00,WUHU215HW,2013-02-18 23:05:00,
2013-02-18 16:10:00,40.2,17.2,29.78,WSW,248,0.0,0.0,39,0.00,,,0.00,WUHU215HW,2013-02-18 23:10:00,
2013-02-18 16:15:00,40.2,16.5,29.77,WSW,248,0.0,0.0,38,0.00,,,0.00,WUHU215HW,2013-02-18 23:15:00,
2013-02-18 16:21:00,40.1,15.7,29.78,SSW,203,0.0,0.0,37,0.00,,,0.00,WUHU215HW,2013-02-18 23:21:00,
2013-02-18 16:26:00,39.9,15.5,29.77,SSW,203,0.0,0.0,37,0.00,,,0.00,WUHU215HW,2013-02-18 23:26:00,
2013-02-18 16:31:00,39.9,16.2,29.77,SSW,203,0.0,0.0,38,0.00,,,0.00,WUHU215HW,2013-02-18 23:31:00,
2013-02-18 16:36:00,39.9,16.2,29.77,SSW,203,0.0,0.0,38,0.00,,,0.00,WUHU215HW,2013-02-18 23:36:00,
2013-02-18 16:41:00,39.9,16.2,29.77,SSW,203,0.0,0.0,38,0.00,,,0.00,WUHU215HW,2013-02-18 23:41:00,
2013-02-18 16:46:00,39.9,16.8,29.77,SSW,203,0.0,0.0,39,0.00,,,0.00,WUHU215HW,2013-02-18 23:46:00,
2013-02-18 16:51:00,39.9,16.2,29.76,SSW,203,0.0,0.0,38,0.00,,,0.00,WUHU215HW,2013-02-18 23:51:00,
2013-02-18 16:56:00,39.7,16.7,29.76,SSW,203,0.0,0.0,39,0.00,,,0.00,WUHU215HW,2013-02-18 23:56:00,
2013-02-18 17:02:00,39.5,16.5,29.76,SSW,203,0.0,0.0,39,0.00,,,0.00,WUHU215HW,2013-02-19 00:02:00,
2013-02-18 17:07:00,39.3,16.3,29.76,SSW,203,0.0,0.0,39,0.00,,,0.00,WUHU215HW,2013-02-19 00:07:00,
2013-02-18 17:13:00,39.3,16.3,29.75,SSW,203,0.0,0.0,39,0.00,,,0.00,WUHU215HW,2013-02-19 00:13:00,
2013-02-18 17:18:00,38.8,15.2,29.75,SSW,203,0.0,0.0,38,0.00,,,0.00,WUHU215HW,2013-02-19 00:18:00,
2013-02-18 17:23:00,38.4,14.9,29.75,SSW,203,0.0,0.0,38,0.00,,,0.00,WUHU215HW,2013-02-19 00:23:00,
2013-02-18 17:29:00,38.1,14.6,29.74,SSW,203,0.0,0.0,38,0.00,,,0.00,WUHU215HW,2013-02-19 00:29:00,
2013-02-18 17:34:00,37.7,14.9,29.74,SSW,203,0.0,0.0,39,0.00,,,0.00,WUHU215HW,2013-02-19 00:34:00,
2013-02-18 17:39:00,37.4,14.6,29.74,SSW,203,0.0,0.0,39,0.00,,,0.00,WUHU215HW,2013-02-19 00:39:00,
2013-02-18 17:45:00,37.0,14.9,29.74,SSW,203,0.0,0.0,40,0.00,,,0.00,WUHU215HW,2013-02-19 00:45:00,
2013-02-18 17:50:00,37.0,14.9,29.74,SSW,203,0.0,0.0,40,0.00,,,0.00,WUHU215HW,2013-02-19 00:50:00,
2013-02-18 17:56:00,36.5,14.4,29.74,SSW,203,0.0,0.0,40,0.00,,,0.00,WUHU215HW,2013-02-19 00:56:00,
2013-02-18 18:01:00,36.3,14.8,29.73,SSW,203,0.0,0.0,41,0.00,,,0.00,WUHU215HW,2013-02-19 01:01:00,
2013-02-18 18:06:00,35.7,15.3,29.73,SSW,203,0.0,0.0,43,0.00,,,0.00,WUHU215HW,2013-02-19 01:06:00,
2013-02-18 18:12:00,35.4,14.5,29.73,SSW,203,0.0,0.0,42,0.00,,,0.00,WUHU215HW,2013-02-19 01:12:00,
2013-02-18 18:19:00,35.4,14.5,29.72,SE,135,0.0,0.0,42,0.00,,,0.00,WUHU215HW,2013-02-19 01:19:00,
2013-02-18 18:24:00,35.4,15.0,29.71,SE,135,0.0,0.0,43,0.00,,,0.00,WUHU215HW,2013-02-19 01:24:00,
2013-02-18 18:29:00,35.2,14.8,29.72,ESE,113,0.0,0.0,43,0.00,,,0.00,WUHU215HW,2013-02-19 01:29:00,
2013-02-18 18:35:00,35.2,14.8,29.72,ESE,113,0.0,0.0,43,0.00,,,0.00,WUHU215HW,2013-02-19 01:35:00,
2013-02-18 18:40:00,35.2,15.3,29.72,ESE,113,0.0,0.0,44,0.00,,,0.00,WUHU215HW,2013-02-19 01:40:00,
2013-02-18 18:45:00,35.2,15.9,29.72,ESE,113,0.0,0.0,45,0.00,,,0.00,WUHU215HW,2013-02-19 01:45:00,
2013-02-18 18:51:00,34.8,14.5,29.71,ESE,113,0.0,0.0,43,0.00,,,0.00,WUHU215HW,2013-02-19 01:51:00,
2013-02-18 18:56:00,34.8,13.4,29.71,ESE,113,0.0,0.0,41,0.00,,,0.00,WUHU215HW,2013-02-19 01:56:00,
2013-02-18 19:02:00,34.8,13.4,29.70,ESE,113,0.0,0.0,41,0.00,,,0.00,WUHU215HW,2013-02-19 02:02:00,
2013-02-18 19:08:00,34.5,13.6,29.70,ESE,113,0.0,0.0,42,0.00,,,0.00,WUHU215HW,2013-02-19 02:08:00,
2013-02-18 19:13:00,34.3,13.5,29.71,ESE,113,0.0,0.0,42,0.00,,,0.00,WUHU215HW,2013-02-19 02:13:00,
2013-02-18 19:18:00,34.3,13.5,29.71,ESE,113,0.0,0.0,42,0.00,,,0.00,WUHU215HW,2013-02-19 02:18:00,
2013-02-18 19:23:00,33.8,13.5,29.71,ESE,113,0.0,0.0,43,0.00,,,0.00,WUHU215HW,2013-02-19 02:23:00,
2013-02-18 19:28:00,33.6,13.3,29.70,ESE,113,0.0,0.0,43,0.00,,,0.00,WUHU215HW,2013-02-19 02:28:00,
2013-02-18 19:33:00,33.4,12.7,29.70,ESE,113,0.0,0.0,42,0.00,,,0.00,WUHU215HW,2013-02-19 02:33:00,
2013-02-18 19:38:00,33.4,13.2,29.70,ESE,113,0.0,0.0,43,0.00,,,0.00,WUHU215HW,2013-02-19 02:38:00,
2013-02-18 19:43:00,33.0,12.8,29.69,ESE,113,0.0,0.0,43,0.00,,,0.00,WUHU215HW,2013-02-19 02:43:00,
2013-02-18 19:49:00,32.9,12.7,29.69,ESE,113,0.0,0.0,43,0.00,,,0.00,WUHU215HW,2013-02-19 02:49:00,
2013-02-18 19:54:00,32.7,12.5,29.69,ESE,113,0.0,0.0,43,0.00,,,0.00,WUHU215HW,2013-02-19 02:54:00,
2013-02-18 19:59:00,32.7,12.5,29.69,ESE,113,0.0,0.0,43,0.00,,,0.00,WUHU215HW,2013-02-19 02:59:00,
2013-02-18 20:04:00,32.5,12.3,29.69,ESE,113,0.0,0.0,43,0.00,,,0.00,WUHU215HW,2013-02-19 03:04:00,
2013-02-18 20:09:00,32.3,13.2,29.69,ESE,113,0.0,0.0,45,0.00,,,0.00,WUHU215HW,2013-02-19 03:09:00,
2013-02-18 20:15:00,32.1,12.5,29.68,ESE,113,0.0,0.0,44,0.00,,,0.00,WUHU215HW,2013-02-19 03:15:00,
2013-02-18 20:20:00,32.1,12.0,29.68,ESE,113,0.0,0.0,43,0.00,,,0.00,WUHU215HW,2013-02-19 03:20:00,
2013-02-18 20:26:00,32.5,12.3,29.68,ESE,113,0.0,0.0,43,0.00,,,0.00,WUHU215HW,2013-02-19 03:26:00,
2013-02-18 20:31:00,32.7,12.5,29.68,ESE,113,0.0,0.0,43,0.00,,,0.00,WUHU215HW,2013-02-19 03:31:00,
2013-02-18 20:36:00,32.7,12.5,29.68,ESE,113,0.0,0.0,43,0.00,,,0.00,WUHU215HW,2013-02-19 03:36:00,
2013-02-18 20:41:00,32.5,12.9,29.68,ESE,113,0.0,0.0,44,0.00,,,0.00,WUHU215HW,2013-02-19 03:41:00,
2013-02-18 20:46:00,32.3,12.7,29.68,ESE,113,0.0,0.0,44,0.00,,,0.00,WUHU215HW,2013-02-19 03:46:00,
2013-02-18 20:52:00,31.8,12.7,29.68,ESE,113,0.0,0.0,45,0.00,,,0.00,WUHU215HW,2013-02-19 03:52:00,
2013-02-18 20:58:00,31.2,12.7,29.68,ESE,113,0.0,0.0,46,0.00,,,0.00,WUHU215HW,2013-02-19 03:58:00,
2013-02-18 21:03:00,30.9,12.9,29.68,ESE,113,0.0,0.0,47,0.00,,,0.00,WUHU215HW,2013-02-19 04:03:00,
2013-02-18 21:08:00,30.5,12.6,29.68,ESE,113,0.0,0.0,47,0.00,,,0.00,WUHU215HW,2013-02-19 04:08:00,
2013-02-18 21:14:00,30.3,11.9,29.68,ESE,113,0.0,0.0,48,0.00,,,0.00,WUHU215HW,2013-02-19 04:14:00,
2013-02-18 21:19:00,30.0,13.1,29.67,ESE,113,0.0,0.0,49,0.00,,,0.00,WUHU215HW,2013-02-19 04:19:00,
2013-02-18 21:24:00,29.6,13.3,29.68,ESE,113,0.0,0.0,50,0.00,,,0.00,WUHU215HW,2013-02-19 04:24:00,
2013-02-18 21:29:00,28.9,12.1,29.67,ESE,113,0.0,0.0,50,0.00,,,0.00,WUHU215HW,2013-02-19 04:29:00,
2013-02-18 21:35:00,28.7,12.0,29.67,ESE,113,0.0,0.0,49,0.00,,,0.00,WUHU215HW,2013-02-19 04:35:00,
2013-02-18 21:40:00,28.5,11.8,29.67,ESE,113,0.0,0.0,49,0.00,,,0.00,WUHU215HW,2013-02-19 04:40:00,
2013-02-18 21:46:00,28.2,12.6,29.67,ESE,113,0.0,0.0,52,0.00,,,0.00,WUHU215HW,2013-02-19 04:46:00,
2013-02-18 21:51:00,27.6,11.8,29.67,ESE,113,0.0,0.0,51,0.00,,,0.00,WUHU215HW,2013-02-19 04:51:00,
2013-02-18 21:56:00,27.5,11.7,29.67,ESE,113,0.0,0.0,51,0.00,,,0.00,WUHU215HW,2013-02-19 04:56:00,
2013-02-18 22:00:00,27.1,11.3,29.67,ESE,113,0.0,0.0,51,0.00,,,0.00,WUHU215HW,2013-02-19 05:00:00,
2013-02-18 22:01:00,27.1,11.3,29.67,ESE,113,0.0,0.0,51,0.00,,,0.00,WUHU215HW,2013-02-19 05:01:00,
2013-02-18 22:06:00,26.7,11.8,29.67,ESE,113,0.0,0.0,53,0.00,,,0.00,WUHU215HW,2013-02-19 05:06:00,
2013-02-18 22:11:00,26.4,11.0,29.66,ESE,113,0.0,0.0,52,0.00,,,0.00,WUHU215HW,2013-02-19 05:11:00,
2013-02-18 22:16:00,26.2,10.9,29.67,ESE,113,0.0,0.0,52,0.00,,,0.00,WUHU215HW,2013-02-19 05:16:00,
2013-02-18 22:21:00,26.2,10.9,29.67,ESE,113,0.0,0.0,52,0.00,,,0.00,WUHU215HW,2013-02-19 05:21:00,
2013-02-18 22:26:00,26.0,11.1,29.66,ESE,113,0.0,0.0,53,0.00,,,0.00,WUHU215HW,2013-02-19 05:26:00,
2013-02-18 22:31:00,26.0,11.1,29.66,ESE,113,0.0,0.0,53,0.00,,,0.00,WUHU215HW,2013-02-19 05:31:00,
2013-02-18 22:36:00,25.8,11.4,29.66,ESE,113,0.0,0.0,54,0.00,,,0.00,WUHU215HW,2013-02-19 05:36:00,
2013-02-18 22:41:00,25.7,10.8,29.66,ESE,113,0.0,0.0,53,0.00,,,0.00,WUHU215HW,2013-02-19 05:41:00,
2013-02-18 22:46:00,25.5,10.6,29.66,ESE,113,0.0,0.0,53,0.00,,,0.00,WUHU215HW,2013-02-19 05:46:00,
2013-02-18 22:51:00,25.3,10.9,29.66,ESE,113,0.0,0.0,54,0.00,,,0.00,WUHU215HW,2013-02-19 05:51:00,
2013-02-18 22:56:00,25.1,10.7,29.66,ESE,113,0.0,0.0,54,0.00,,,0.00,WUHU215HW,2013-02-19 05:56:00,
2013-02-18 23:01:00,25.1,10.3,29.66,ESE,113,0.0,0.0,53,0.00,,,0.00,WUHU215HW,2013-02-19 06:01:00,
2013-02-18 23:06:00,25.1,10.7,29.66,ESE,113,0.0,0.0,54,0.00,,,0.00,WUHU215HW,2013-02-19 06:06:00,
2013-02-18 23:11:00,25.1,11.1,29.65,ESE,113,0.0,0.0,55,0.00,,,0.00,WUHU215HW,2013-02-19 06:11:00,
2013-02-18 23:16:00,25.1,11.5,29.65,ESE,113,0.0,0.0,56,0.00,,,0.00,WUHU215HW,2013-02-19 06:16:00,
2013-02-18 23:21:00,25.1,11.5,29.65,ESE,113,0.0,0.0,56,0.00,,,0.00,WUHU215HW,2013-02-19 06:21:00,
2013-02-18 23:26:00,25.1,11.1,29.65,ESE,113,0.0,0.0,55,0.00,,,0.00,WUHU215HW,2013-02-19 06:26:00,
2013-02-18 23:31:00,24.9,11.0,29.65,ESE,113,0.0,0.0,55,0.00,,,0.00,WUHU215HW,2013-02-19 06:31:00,
2013-02-18 23:36:00,24.6,11.0,29.64,ESE,113,0.0,0.0,56,0.00,,,0.00,WUHU215HW,2013-02-19 06:36:00,
2013-02-18 23:41:00,24.6,11.0,29.64,ESE,113,0.0,0.0,56,0.00,,,0.00,WUHU215HW,2013-02-19 06:41:00,
2013-02-18 23:46:00,24.4,10.9,29.64,ESE,113,0.0,0.0,56,0.00,,,0.00,WUHU215HW,2013-02-19 06:46:00,
2013-02-18 23:51:00,24.4,10.9,29.63,ESE,113,0.0,0.0,56,0.00,,,0.00,WUHU215HW,2013-02-19 06:51:00,
2013-02-18 23:55:00,24.4,11.3,29.63,ESE,113,0.0,0.0,57,0.00,,,0.00,WUHU215HW,2013-02-19 06:55:00,